createdAt,value
2023-04-18T00:07:44.070Z,6.5
2023-04-18T00:17:46.250Z,6.3
2023-04-18T00:27:48.579Z,6.1
2023-04-18T00:37:50.550Z,6
2023-04-18T00:47:52.852Z,5.9
2023-04-18T01:07:56.617Z,5.7
2023-04-18T01:17:59.213Z,5.5
2023-04-18T01:28:01.655Z,5.7
2023-04-18T01:38:03.818Z,5.8
2023-04-18T01:48:05.711Z,5.9
2023-04-18T01:58:08.126Z,5.8
2023-04-18T02:08:10.781Z,5.8
2023-04-18T02:18:12.475Z,5.6
2023-04-18T02:28:14.943Z,5.4
2023-04-18T02:38:16.789Z,5.4
2023-04-18T02:48:19.155Z,5.3
2023-04-18T02:58:21.718Z,5.4
2023-04-18T03:08:23.670Z,5.5
2023-04-18T03:18:26.092Z,5.6
2023-04-18T03:28:27.760Z,5.8
2023-04-18T03:38:29.460Z,5.8
2023-04-18T03:48:31.204Z,5.9
2023-04-18T03:58:33.821Z,6
2023-04-18T04:08:36.441Z,6.1
2023-04-18T04:18:38.161Z,6.1
2023-04-18T04:28:40.495Z,6.1
2023-04-18T04:38:42.267Z,6.1
2023-04-18T04:48:44.397Z,6.1
2023-04-18T04:58:46.251Z,6.2
2023-04-18T05:08:48.926Z,6.2
2023-04-18T05:18:51.234Z,6.2
2023-04-18T05:28:53.521Z,6.4
2023-04-18T05:48:57.676Z,7.3
2023-04-18T05:58:59.837Z,6.8
2023-04-18T06:09:02.418Z,6.8
2023-04-18T06:19:04.190Z,6.7
2023-04-18T06:29:05.876Z,6.5
2023-04-18T06:49:10.258Z,6.4
2023-04-18T06:59:12.257Z,6.5
2023-04-18T07:09:14.558Z,6.6
2023-04-18T07:19:16.227Z,6.6
2023-04-18T07:29:18.360Z,6.8
2023-04-18T07:39:20.285Z,6.8
2023-04-18T07:49:22.473Z,7
2023-04-18T07:59:24.822Z,7.1
2023-04-18T08:09:26.439Z,7.2
2023-04-18T08:19:28.311Z,7.3
2023-04-18T08:29:30.786Z,7.6
2023-04-18T08:39:33.286Z,7.5
2023-04-18T08:49:35.033Z,7.7
2023-04-18T08:59:36.970Z,7.6
2023-04-18T09:09:39.330Z,7.5
2023-04-18T09:19:41.616Z,8
2023-04-18T09:29:43.761Z,8.2
2023-04-18T09:39:45.531Z,8.1
2023-04-18T09:49:47.733Z,8.2
2023-04-18T09:59:49.809Z,8.5
2023-04-18T10:09:52.240Z,8.8
2023-04-18T10:19:54.524Z,8.9
2023-04-18T10:29:56.590Z,9
2023-04-18T10:39:59.020Z,9.1
2023-04-18T10:50:01.119Z,9.3
2023-04-18T11:00:03.350Z,9.6
2023-04-18T11:10:05.230Z,9.5
2023-04-18T11:20:07.783Z,9.7
2023-04-18T11:30:09.468Z,9.8
2023-04-18T11:40:11.766Z,9.9
2023-04-18T11:50:14.054Z,10.2
2023-04-18T12:00:16.008Z,10.4
2023-04-18T12:10:17.882Z,10.3
2023-04-18T12:20:19.722Z,10.9
2023-04-18T12:30:22.089Z,10.6
2023-04-18T12:40:24.473Z,11.2
2023-04-18T12:50:26.496Z,11
2023-04-18T13:00:29.103Z,10.7
2023-04-18T13:10:30.765Z,10.8
2023-04-18T13:20:32.369Z,11.3
2023-04-18T13:30:34.304Z,12
2023-04-18T13:40:36.610Z,12
2023-04-18T13:50:38.313Z,12.2
2023-04-18T14:00:40.292Z,12.8
2023-04-18T14:20:43.775Z,13.1
2023-04-18T14:30:46.460Z,12.2
2023-04-18T14:40:48.513Z,12.4
2023-04-18T14:50:50.268Z,12.6
2023-04-18T15:00:52.687Z,12.4
2023-04-18T15:20:57.577Z,12
2023-04-18T15:41:01.616Z,12.4
2023-04-18T15:51:03.571Z,12.2
2023-04-18T16:01:06.085Z,12.4
2023-04-18T16:11:08.014Z,12.5
2023-04-18T16:21:10.269Z,12.6
2023-04-18T16:31:11.942Z,12.5
2023-04-18T16:41:13.598Z,12.4
2023-04-18T17:01:17.563Z,12.1
2023-04-18T17:11:19.345Z,11.8
2023-04-18T17:41:26.268Z,11.6
2023-04-18T18:51:41.327Z,10.3
2023-04-18T19:11:44.984Z,9.8
2023-04-18T19:31:48.938Z,9.8
2023-04-18T20:11:56.353Z,9.2
2023-04-18T20:52:05.634Z,9.1
2023-04-18T22:02:21.330Z,9.1
2023-04-18T22:12:23.063Z,9.1
2023-04-18T22:22:25.134Z,9
2023-04-18T22:32:27.483Z,9
2023-04-18T22:42:30.013Z,8.9
2023-04-18T22:52:31.637Z,9
2023-04-18T23:12:36.388Z,9.1
2023-04-18T23:22:38.405Z,9.3
2023-04-18T23:32:41.041Z,9.4
2023-04-18T23:42:43.557Z,9.5
